sensor_id;sensor_type;location;lat;lon;timestamp;pressure;altitude;pressure_sealevel;temperature;humidity
34586;BME280;20816;50.950;11.108;2023-04-01T00:01:24;96607.97;;;9.32;100.00
34586;BME280;20816;50.950;11.108;2023-04-01T00:03:51;96608.81;;;9.33;100.00
34586;BME280;20816;50.950;11.108;2023-04-01T00:06:18;96600.59;;;9.40;100.00
34586;BME280;20816;50.950;11.108;2023-04-01T00:08:45;96605.28;;;9.34;100.00
34586;BME280;20816;50.950;11.108;2023-04-01T00:11:13;96611.22;;;9.37;100.00
34586;BME280;20816;50.950;11.108;2023-04-01T00:13:41;96609.66;;;9.33;100.00
34586;BME280;20816;50.950;11.108;2023-04-01T00:16:07;96601.59;;;9.38;100.00
34586;BME280;20816;50.950;11.108;2023-04-01T00:18:47;96606.84;;;9.38;100.00
34586;BME280;20816;50.950;11.108;2023-04-01T00:21:14;96604.97;;;9.40;100.00
34586;BME280;20816;50.950;11.108;2023-04-01T00:23:41;96601.72;;;9.35;100.00
34586;BME280;20816;50.950;11.108;2023-04-01T00:26:08;96606.97;;;9.35;100.00
34586;BME280;20816;50.950;11.108;2023-04-01T00:28:35;96604.22;;;9.38;100.00
34586;BME280;20816;50.950;11.108;2023-04-01T00:31:08;96599.94;;;9.35;100.00
34586;BME280;20816;50.950;11.108;2023-04-01T00:33:35;96603.28;;;9.39;100.00
34586;BME280;20816;50.950;11.108;2023-04-01T00:36:17;96605.19;;;9.35;100.00
34586;BME280;20816;50.950;11.108;2023-04-01T00:38:45;96599.25;;;9.32;100.00
34586;BME280;20816;50.950;11.108;2023-04-01T00:41:14;96591.78;;;9.41;100.00
34586;BME280;20816;50.950;11.108;2023-04-01T00:43:43;96595.25;;;9.42;100.00
34586;BME280;20816;50.950;11.108;2023-04-01T00:46:11;96600.97;;;9.33;100.00
34586;BME280;20816;50.950;11.108;2023-04-01T00:48:45;96602.44;;;9.38;100.00
34586;BME280;20816;50.950;11.108;2023-04-01T00:51:22;96599.56;;;9.43;100.00
34586;BME280;20816;50.950;11.108;2023-04-01T00:53:52;96603.50;;;9.34;100.00
34586;BME280;20816;50.950;11.108;2023-04-01T00:56:35;96600.28;;;9.46;100.00
34586;BME280;20816;50.950;11.108;2023-04-01T00:59:10;96604.97;;;9.40;100.00
34586;BME280;20816;50.950;11.108;2023-04-01T01:01:38;96601.13;;;9.47;100.00
34586;BME280;20816;50.950;11.108;2023-04-01T01:04:04;96610.22;;;9.40;100.00
34586;BME280;20816;50.950;11.108;2023-04-01T01:09:23;96606.47;;;9.45;100.00
34586;BME280;20816;50.950;11.108;2023-04-01T01:12:03;96596.19;;;9.41;100.00
34586;BME280;20816;50.950;11.108;2023-04-01T01:17:24;96603.00;;;9.45;100.00
34586;BME280;20816;50.950;11.108;2023-04-01T01:19:57;96600.38;;;9.45;100.00
34586;BME280;20816;50.950;11.108;2023-04-01T01:28:35;96597.88;;;9.42;100.00
34586;BME280;20816;50.950;11.108;2023-04-01T01:34:32;96601.16;;;9.28;100.00
34586;BME280;20816;50.950;11.108;2023-04-01T01:37:06;96593.47;;;9.25;100.00
34586;BME280;20816;50.950;11.108;2023-04-01T01:39:37;96587.47;;;9.23;100.00
34586;BME280;20816;50.950;11.108;2023-04-01T01:42:06;96585.16;;;9.34;100.00
34586;BME280;20816;50.950;11.108;2023-04-01T01:44:35;96586.63;;;9.22;100.00
34586;BME280;20816;50.950;11.108;2023-04-01T01:47:03;96585.44;;;9.28;100.00
34586;BME280;20816;50.950;11.108;2023-04-01T01:49:31;96585.75;;;9.22;100.00
34586;BME280;20816;50.950;11.108;2023-04-01T01:51:59;96591.22;;;9.17;100.00
34586;BME280;20816;50.950;11.108;2023-04-01T01:54:26;96588.31;;;9.23;100.00
34586;BME280;20816;50.950;11.108;2023-04-01T01:57:03;96583.84;;;9.25;100.00
34586;BME280;20816;50.950;11.108;2023-04-01T01:59:33;96587.38;;;9.24;100.00
34586;BME280;20816;50.950;11.108;2023-04-01T02:02:02;96593.25;;;9.30;100.00
34586;BME280;20816;50.950;11.108;2023-04-01T02:04:36;96591.09;;;9.20;100.00
34586;BME280;20816;50.950;11.108;2023-04-01T02:07:09;96587.75;;;9.17;100.00
34586;BME280;20816;50.950;11.108;2023-04-01T02:09:39;96591.78;;;9.24;100.00
34586;BME280;20816;50.950;11.108;2023-04-01T02:12:07;96589.31;;;9.21;100.00
34586;BME280;20816;50.950;11.108;2023-04-01T02:17:10;96589.59;;;9.15;100.00
34586;BME280;20816;50.950;11.108;2023-04-01T02:19:46;96587.38;;;9.24;100.00
34586;BME280;20816;50.950;11.108;2023-04-01T02:22:17;96591.09;;;9.20;100.00
34586;BME280;20816;50.950;11.108;2023-04-01T02:24:46;96583.22;;;9.20;100.00
34586;BME280;20816;50.950;11.108;2023-04-01T02:27:14;96576.41;;;9.16;100.00
34586;BME280;20816;50.950;11.108;2023-04-01T02:29:41;96587.91;;;9.14;100.00
34586;BME280;20816;50.950;11.108;2023-04-01T02:32:08;96581.22;;;9.25;100.00
34586;BME280;20816;50.950;11.108;2023-04-01T02:34:36;96584.19;;;9.18;100.00
34586;BME280;20816;50.950;11.108;2023-04-01T02:37:03;96582.44;;;9.18;100.00
34586;BME280;20816;50.950;11.108;2023-04-01T02:39:30;96592.78;;;9.21;100.00
34586;BME280;20816;50.950;11.108;2023-04-01T02:41:57;96588.59;;;9.17;100.00
34586;BME280;20816;50.950;11.108;2023-04-01T02:44:24;96597.38;;;9.16;100.00
34586;BME280;20816;50.950;11.108;2023-04-01T02:46:50;96602.78;;;9.13;100.00
34586;BME280;20816;50.950;11.108;2023-04-01T02:49:17;96601.22;;;9.09;100.00
34586;BME280;20816;50.950;11.108;2023-04-01T02:51:44;96595.53;;;9.18;100.00
34586;BME280;20816;50.950;11.108;2023-04-01T02:54:10;96599.69;;;9.05;100.00
34586;BME280;20816;50.950;11.108;2023-04-01T02:56:37;96610.16;;;9.05;100.00
34586;BME280;20816;50.950;11.108;2023-04-01T02:59:04;96602.31;;;9.05;100.00
34586;BME280;20816;50.950;11.108;2023-04-01T03:01:31;96604.56;;;9.13;100.00
34586;BME280;20816;50.950;11.108;2023-04-01T03:03:57;96602.06;;;9.10;100.00
34586;BME280;20816;50.950;11.108;2023-04-01T03:06:24;96594.69;;;9.18;100.00
34586;BME280;20816;50.950;11.108;2023-04-01T03:08:51;96605.41;;;9.13;100.00
34586;BME280;20816;50.950;11.108;2023-04-01T03:11:18;96595.28;;;9.06;100.00
34586;BME280;20816;50.950;11.108;2023-04-01T03:13:44;96586.22;;;9.13;100.00
34586;BME280;20816;50.950;11.108;2023-04-01T03:16:11;96585.22;;;9.15;100.00
34586;BME280;20816;50.950;11.108;2023-04-01T03:18:37;96595.41;;;9.03;100.00
34586;BME280;20816;50.950;11.108;2023-04-01T03:21:18;96588.03;;;9.11;100.00
34586;BME280;20816;50.950;11.108;2023-04-01T03:23:45;96591.09;;;9.02;100.00
34586;BME280;20816;50.950;11.108;2023-04-01T03:26:12;96584.09;;;9.02;100.00
34586;BME280;20816;50.950;11.108;2023-04-01T03:28:39;96586.09;;;8.97;100.00
34586;BME280;20816;50.950;11.108;2023-04-01T03:31:06;96600.38;;;9.09;100.00
34586;BME280;20816;50.950;11.108;2023-04-01T03:33:33;96590.53;;;8.95;100.00
34586;BME280;20816;50.950;11.108;2023-04-01T03:35:59;96599.25;;;8.95;100.00
34586;BME280;20816;50.950;11.108;2023-04-01T03:38:26;96598.97;;;9.02;100.00
34586;BME280;20816;50.950;11.108;2023-04-01T03:40:53;96599.69;;;9.05;100.00
34586;BME280;20816;50.950;11.108;2023-04-01T03:43:19;96599.19;;;8.97;100.00
34586;BME280;20816;50.950;11.108;2023-04-01T03:45:50;96605.38;;;8.96;100.00
34586;BME280;20816;50.950;11.108;2023-04-01T03:48:18;96600.41;;;8.90;100.00
34586;BME280;20816;50.950;11.108;2023-04-01T03:50:45;96597.88;;;8.88;100.00
34586;BME280;20816;50.950;11.108;2023-04-01T03:53:11;96602.03;;;8.92;100.00
34586;BME280;20816;50.950;11.108;2023-04-01T03:55:39;96599.69;;;8.86;100.00
34586;BME280;20816;50.950;11.108;2023-04-01T03:58:06;96602.38;;;8.85;100.00
34586;BME280;20816;50.950;11.108;2023-04-01T04:00:34;96603.97;;;8.89;100.00
34586;BME280;20816;50.950;11.108;2023-04-01T04:03:01;96600.03;;;8.79;100.00
34586;BME280;20816;50.950;11.108;2023-04-01T04:05:28;96604.22;;;8.83;100.00
34586;BME280;20816;50.950;11.108;2023-04-01T04:07:54;96611.53;;;8.76;100.00
34586;BME280;20816;50.950;11.108;2023-04-01T04:10:21;96618.09;;;8.85;100.00
34586;BME280;20816;50.950;11.108;2023-04-01T04:12:49;96622.78;;;8.78;100.00
34586;BME280;20816;50.950;11.108;2023-04-01T04:15:16;96621.22;;;8.74;100.00
34586;BME280;20816;50.950;11.108;2023-04-01T04:17:46;96617.13;;;8.68;100.00
34586;BME280;20816;50.950;11.108;2023-04-01T04:20:12;96617.28;;;8.65;100.00
34586;BME280;20816;50.950;11.108;2023-04-01T04:22:39;96617.88;;;8.70;100.00
34586;BME280;20816;50.950;11.108;2023-04-01T04:25:07;96612.66;;;8.70;100.00
34586;BME280;20816;50.950;11.108;2023-04-01T04:27:34;96627.31;;;8.75;100.00
34586;BME280;20816;50.950;11.108;2023-04-01T04:30:00;96626.06;;;8.64;100.00
34586;BME280;20816;50.950;11.108;2023-04-01T04:32:27;96624.47;;;8.60;100.00
34586;BME280;20816;50.950;11.108;2023-04-01T04:34:55;96629.28;;;8.69;100.00
34586;BME280;20816;50.950;11.108;2023-04-01T04:37:22;96624.47;;;8.60;100.00
34586;BME280;20816;50.950;11.108;2023-04-01T04:39:48;96625.75;;;8.70;100.00
34586;BME280;20816;50.950;11.108;2023-04-01T04:42:15;96629.28;;;8.69;100.00
34586;BME280;20816;50.950;11.108;2023-04-01T04:44:42;96632.56;;;8.75;100.00
34586;BME280;20816;50.950;11.108;2023-04-01T04:47:09;96629.69;;;8.79;100.00
34586;BME280;20816;50.950;11.108;2023-04-01T04:49:36;96627.16;;;8.78;100.00
34586;BME280;20816;50.950;11.108;2023-04-01T04:52:02;96630.28;;;8.86;100.00
34586;BME280;20816;50.950;11.108;2023-04-01T04:54:29;96627.53;;;8.89;100.00
34586;BME280;20816;50.950;11.108;2023-04-01T04:56:56;96631.44;;;8.80;100.00
34586;BME280;20816;50.950;11.108;2023-04-01T04:59:23;96643.38;;;8.86;100.00
34586;BME280;20816;50.950;11.108;2023-04-01T05:01:50;96644.72;;;8.76;100.00
34586;BME280;20816;50.950;11.108;2023-04-01T05:04:17;96634.19;;;8.77;100.00
34586;BME280;20816;50.950;11.108;2023-04-01T05:06:44;96638.13;;;8.86;100.00
34586;BME280;20816;50.950;11.108;2023-04-01T05:09:11;96638.50;;;8.78;100.00
34586;BME280;20816;50.950;11.108;2023-04-01T05:11:38;96640.91;;;8.83;100.00
34586;BME280;20816;50.950;11.108;2023-04-01T05:14:04;96633.97;;;8.82;100.00
34586;BME280;20816;50.950;11.108;2023-04-01T05:16:31;96635.50;;;8.86;100.00
34586;BME280;20816;50.950;11.108;2023-04-01T05:18:58;96629.66;;;8.81;100.00
34586;BME280;20816;50.950;11.108;2023-04-01T05:21:24;96631.44;;;8.80;100.00
34586;BME280;20816;50.950;11.108;2023-04-01T05:23:51;96640.63;;;8.89;100.00
34586;BME280;20816;50.950;11.108;2023-04-01T05:26:18;96630.72;;;8.77;100.00
34586;BME280;20816;50.950;11.108;2023-04-01T05:28:45;96644.44;;;8.82;100.00
34586;BME280;20816;50.950;11.108;2023-04-01T05:31:11;96636.81;;;8.96;100.00
34586;BME280;20816;50.950;11.108;2023-04-01T05:33:38;96646.91;;;8.85;100.00
34586;BME280;20816;50.950;11.108;2023-04-01T05:36:16;96643.25;;;8.89;100.00
34586;BME280;20816;50.950;11.108;2023-04-01T05:38:43;96648.69;;;8.84;100.00
34586;BME280;20816;50.950;11.108;2023-04-01T05:41:12;96648.63;;;8.86;100.00
34586;BME280;20816;50.950;11.108;2023-04-01T05:43:40;96660.50;;;8.93;100.00
34586;BME280;20816;50.950;11.108;2023-04-01T05:46:07;96661.44;;;8.92;100.00
34586;BME280;20816;50.950;11.108;2023-04-01T05:48:34;96655.84;;;8.81;100.00
34586;BME280;20816;50.950;11.108;2023-04-01T05:51:02;96654.50;;;8.91;100.00
34586;BME280;20816;50.950;11.108;2023-04-01T05:53:29;96663.41;;;8.87;100.00
34586;BME280;20816;50.950;11.108;2023-04-01T05:55:56;96666.53;;;8.95;100.00
34586;BME280;20816;50.950;11.108;2023-04-01T05:58:23;96669.22;;;8.93;100.00
34586;BME280;20816;50.950;11.108;2023-04-01T06:00:49;96659.31;;;9.00;100.00
34586;BME280;20816;50.950;11.108;2023-04-01T06:03:34;96665.47;;;8.99;100.00
34586;BME280;20816;50.950;11.108;2023-04-01T06:06:02;96666.53;;;8.95;100.00
34586;BME280;20816;50.950;11.108;2023-04-01T06:08:32;96668.66;;;9.06;100.00
34586;BME280;20816;50.950;11.108;2023-04-01T06:16:36;96664.97;;;9.29;100.00
34586;BME280;20816;50.950;11.108;2023-04-01T06:19:27;96673.66;;;9.29;100.00
34586;BME280;20816;50.950;11.108;2023-04-01T06:22:12;96666.03;;;9.42;100.00
34586;BME280;20816;50.950;11.108;2023-04-01T06:28:00;96659.50;;;9.50;100.00
34586;BME280;20816;50.950;11.108;2023-04-01T06:30:44;96664.38;;;9.58;100.00
34586;BME280;20816;50.950;11.108;2023-04-01T06:46:45;96667.19;;;9.90;100.00
34586;BME280;20816;50.950;11.108;2023-04-01T06:49:36;96664.41;;;10.10;100.00
34586;BME280;20816;50.950;11.108;2023-04-01T06:54:55;96664.63;;;10.73;97.17
34586;BME280;20816;50.950;11.108;2023-04-01T06:57:34;96672.63;;;10.87;96.59
34586;BME280;20816;50.950;11.108;2023-04-01T07:00:27;96671.78;;;11.03;94.65
34586;BME280;20816;50.950;11.108;2023-04-01T07:03:18;96671.88;;;11.17;94.65
34586;BME280;20816;50.950;11.108;2023-04-01T07:05:42;96672.38;;;11.23;93.48
34586;BME280;20816;50.950;11.108;2023-04-01T07:08:13;96678.56;;;11.54;92.71
34586;BME280;20816;50.950;11.108;2023-04-01T07:10:50;96669.03;;;11.67;90.04
34586;BME280;20816;50.950;11.108;2023-04-01T07:13:22;96674.84;;;11.58;92.03
34586;BME280;20816;50.950;11.108;2023-04-01T07:15:58;96675.69;;;11.59;91.35
34586;BME280;20816;50.950;11.108;2023-04-01T07:18:51;96675.53;;;11.30;90.78
34586;BME280;20816;50.950;11.108;2023-04-01T07:21:30;96675.50;;;11.14;92.08
34586;BME280;20816;50.950;11.108;2023-04-01T07:24:09;96683.31;;;11.32;92.16
34586;BME280;20816;50.950;11.108;2023-04-01T07:26:38;96679.94;;;11.45;91.22
34586;BME280;20816;50.950;11.108;2023-04-01T07:29:09;96685.53;;;11.39;90.23
34586;BME280;20816;50.950;11.108;2023-04-01T07:34:26;96678.94;;;11.32;91.96
34586;BME280;20816;50.950;11.108;2023-04-01T07:42:27;96690.63;;;11.11;93.02
34586;BME280;20816;50.950;11.108;2023-04-01T07:45:11;96696.03;;;10.92;93.34
34586;BME280;20816;50.950;11.108;2023-04-01T07:47:49;96691.44;;;10.95;93.95
34586;BME280;20816;50.950;11.108;2023-04-01T07:50:27;96700.78;;;10.85;94.31
34586;BME280;20816;50.950;11.108;2023-04-01T07:52:59;96700.09;;;10.64;95.29
34586;BME280;20816;50.950;11.108;2023-04-01T07:58:14;96698.69;;;10.59;96.03
34586;BME280;20816;50.950;11.108;2023-04-01T08:00:47;96707.00;;;10.67;96.15
34586;BME280;20816;50.950;11.108;2023-04-01T08:06:10;96706.50;;;10.76;95.80
34586;BME280;20816;50.950;11.108;2023-04-01T08:14:23;96707.75;;;11.02;94.80
34586;BME280;20816;50.950;11.108;2023-04-01T08:20:28;96718.44;;;11.15;93.58
34586;BME280;20816;50.950;11.108;2023-04-01T08:22:38;96708.00;;;11.29;92.02
34586;BME280;20816;50.950;11.108;2023-04-01T08:25:13;96713.59;;;11.39;92.32
34586;BME280;20816;50.950;11.108;2023-04-01T08:27:48;96715.66;;;11.49;92.17
34586;BME280;20816;50.950;11.108;2023-04-01T08:30:36;96715.91;;;11.45;92.24
34586;BME280;20816;50.950;11.108;2023-04-01T08:33:17;96716.59;;;11.48;92.35
34586;BME280;20816;50.950;11.108;2023-04-01T08:38:43;96717.03;;;11.25;92.25
34586;BME280;20816;50.950;11.108;2023-04-01T08:47:46;96719.47;;;11.28;91.47
34586;BME280;20816;50.950;11.108;2023-04-01T08:50:32;96724.72;;;11.28;93.35
34586;BME280;20816;50.950;11.108;2023-04-01T08:55:51;96723.03;;;11.59;90.94
34586;BME280;20816;50.950;11.108;2023-04-01T08:58:32;96735.06;;;11.63;91.37
34586;BME280;20816;50.950;11.108;2023-04-01T09:04:13;96726.69;;;11.40;90.27
34586;BME280;20816;50.950;11.108;2023-04-01T09:06:58;96732.72;;;11.42;91.01
34586;BME280;20816;50.950;11.108;2023-04-01T09:12:28;96729.16;;;11.43;91.50
34586;BME280;20816;50.950;11.108;2023-04-01T09:15:02;96726.25;;;11.48;91.65
34586;BME280;20816;50.950;11.108;2023-04-01T09:39:11;96735.59;;;11.38;91.07
34586;BME280;20816;50.950;11.108;2023-04-01T09:42:07;96731.69;;;11.29;90.76
34586;BME280;20816;50.950;11.108;2023-04-01T09:44:57;96737.38;;;11.37;91.72
34586;BME280;20816;50.950;11.108;2023-04-01T09:50:32;96742.47;;;11.40;90.15
34586;BME280;20816;50.950;11.108;2023-04-01T09:56:11;96739.66;;;11.43;90.36
34586;BME280;20816;50.950;11.108;2023-04-01T09:59:15;96752.06;;;11.57;89.64
34586;BME280;20816;50.950;11.108;2023-04-01T10:05:33;96749.00;;;11.81;88.20
34586;BME280;20816;50.950;11.108;2023-04-01T10:11:15;96749.06;;;11.79;89.01
34586;BME280;20816;50.950;11.108;2023-04-01T10:19:49;96753.69;;;11.91;88.22
34586;BME280;20816;50.950;11.108;2023-04-01T10:25:49;96750.63;;;11.83;87.78
34586;BME280;20816;50.950;11.108;2023-04-01T10:34:10;96751.53;;;12.14;87.37
34586;BME280;20816;50.950;11.108;2023-04-01T10:36:50;96751.78;;;12.09;86.50
34586;BME280;20816;50.950;11.108;2023-04-01T10:42:14;96752.63;;;12.10;86.97
34586;BME280;20816;50.950;11.108;2023-04-01T10:51:00;96738.38;;;12.28;88.09
34586;BME280;20816;50.950;11.108;2023-04-01T10:56:39;96739.47;;;12.40;87.00
34586;BME280;20816;50.950;11.108;2023-04-01T11:22:58;96749.94;;;12.70;86.83
34586;BME280;20816;50.950;11.108;2023-04-01T11:26:04;96756.06;;;12.56;88.00
34586;BME280;20816;50.950;11.108;2023-04-01T11:28:46;96759.69;;;12.39;89.92
34586;BME280;20816;50.950;11.108;2023-04-01T11:34:19;96765.84;;;12.24;90.67
34586;BME280;20816;50.950;11.108;2023-04-01T11:40:25;96765.19;;;12.04;91.88
34586;BME280;20816;50.950;11.108;2023-04-01T11:46:07;96764.44;;;12.02;90.78
34586;BME280;20816;50.950;11.108;2023-04-01T11:51:37;96770.41;;;12.06;91.84
34586;BME280;20816;50.950;11.108;2023-04-01T11:57:07;96762.94;;;11.98;89.74
34586;BME280;20816;50.950;11.108;2023-04-01T12:04:42;96768.84;;;12.18;89.86
34586;BME280;20816;50.950;11.108;2023-04-01T12:07:32;96762.50;;;12.36;89.21
34586;BME280;20816;50.950;11.108;2023-04-01T12:16:06;96774.03;;;12.49;90.29
34586;BME280;20816;50.950;11.108;2023-04-01T12:19:07;96771.78;;;12.57;88.99
34586;BME280;20816;50.950;11.108;2023-04-01T12:21:45;96775.97;;;12.90;87.96
34586;BME280;20816;50.950;11.108;2023-04-01T12:24:42;96771.09;;;12.98;88.26
34586;BME280;20816;50.950;11.108;2023-04-01T12:32:47;96787.34;;;13.21;89.40
34586;BME280;20816;50.950;11.108;2023-04-01T12:38:35;96783.38;;;13.28;87.58
34586;BME280;20816;50.950;11.108;2023-04-01T12:41:24;96783.44;;;13.12;86.45
34586;BME280;20816;50.950;11.108;2023-04-01T12:44:50;96783.34;;;13.13;85.90
34586;BME280;20816;50.950;11.108;2023-04-01T12:49:44;96786.50;;;12.76;87.61
34586;BME280;20816;50.950;11.108;2023-04-01T13:01:05;96787.69;;;12.70;86.90
34586;BME280;20816;50.950;11.108;2023-04-01T13:20:51;96812.16;;;11.65;100.00
34586;BME280;20816;50.950;11.108;2023-04-01T13:29:13;96813.53;;;12.03;100.00
34586;BME280;20816;50.950;11.108;2023-04-01T13:35:30;96818.94;;;12.32;100.00
34586;BME280;20816;50.950;11.108;2023-04-01T13:38:31;96818.22;;;12.44;100.00
34586;BME280;20816;50.950;11.108;2023-04-01T13:41:13;96828.22;;;12.53;100.00
34586;BME280;20816;50.950;11.108;2023-04-01T13:43:50;96822.56;;;12.45;100.00
34586;BME280;20816;50.950;11.108;2023-04-01T13:49:29;96821.94;;;12.56;100.00
34586;BME280;20816;50.950;11.108;2023-04-01T14:11:22;96828.91;;;12.57;100.00
34586;BME280;20816;50.950;11.108;2023-04-01T14:14:17;96826.78;;;12.63;100.00
34586;BME280;20816;50.950;11.108;2023-04-01T14:20:20;96832.75;;;12.51;98.17
34586;BME280;20816;50.950;11.108;2023-04-01T14:26:03;96829.56;;;12.60;99.81
34586;BME280;20816;50.950;11.108;2023-04-01T14:28:58;96833.00;;;12.62;100.00
34586;BME280;20816;50.950;11.108;2023-04-01T14:31:48;96833.38;;;12.71;99.75
34586;BME280;20816;50.950;11.108;2023-04-01T14:34:44;96838.47;;;12.74;97.93
34586;BME280;20816;50.950;11.108;2023-04-01T14:48:37;96847.25;;;12.58;96.25
34586;BME280;20816;50.950;11.108;2023-04-01T14:51:16;96845.28;;;12.62;97.30
34586;BME280;20816;50.950;11.108;2023-04-01T14:56:41;96849.38;;;12.68;98.97
34586;BME280;20816;50.950;11.108;2023-04-01T14:59:34;96850.91;;;12.72;98.22
34586;BME280;20816;50.950;11.108;2023-04-01T15:04:58;96857.47;;;12.65;100.00
34586;BME280;20816;50.950;11.108;2023-04-01T15:21:50;96870.94;;;12.13;100.00
34586;BME280;20816;50.950;11.108;2023-04-01T15:30:02;96880.28;;;12.02;100.00
34586;BME280;20816;50.950;11.108;2023-04-01T15:35:40;96886.50;;;11.86;100.00
34586;BME280;20816;50.950;11.108;2023-04-01T15:38:21;96886.88;;;11.78;100.00
34586;BME280;20816;50.950;11.108;2023-04-01T15:41:02;96891.38;;;11.76;100.00
34586;BME280;20816;50.950;11.108;2023-04-01T15:43:40;96894.31;;;11.70;100.00
34586;BME280;20816;50.950;11.108;2023-04-01T16:02:43;96909.84;;;11.59;100.00
34586;BME280;20816;50.950;11.108;2023-04-01T16:11:09;96923.50;;;11.49;100.00
34586;BME280;20816;50.950;11.108;2023-04-01T16:16:47;96928.25;;;11.59;100.00
34586;BME280;20816;50.950;11.108;2023-04-01T16:19:36;96930.13;;;11.57;100.00
34586;BME280;20816;50.950;11.108;2023-04-01T16:22:20;96928.31;;;11.41;100.00
34586;BME280;20816;50.950;11.108;2023-04-01T16:24:56;96936.50;;;11.35;100.00
34586;BME280;20816;50.950;11.108;2023-04-01T16:27:36;96934.81;;;11.34;100.00
34586;BME280;20816;50.950;11.108;2023-04-01T16:32:51;96939.28;;;11.15;100.00
34586;BME280;20816;50.950;11.108;2023-04-01T16:35:23;96947.97;;;11.17;100.00
34586;BME280;20816;50.950;11.108;2023-04-01T16:38:11;96952.44;;;11.15;100.00
34586;BME280;20816;50.950;11.108;2023-04-01T16:41:24;96949.81;;;10.98;100.00
34586;BME280;20816;50.950;11.108;2023-04-01T16:43:50;96962.19;;;10.95;100.00
34586;BME280;20816;50.950;11.108;2023-04-01T16:46:28;96966.97;;;10.87;100.00
34586;BME280;20816;50.950;11.108;2023-04-01T16:49:27;96970.69;;;10.83;100.00
34586;BME280;20816;50.950;11.108;2023-04-01T16:59:55;96973.31;;;10.83;100.00
34586;BME280;20816;50.950;11.108;2023-04-01T17:02:31;96988.16;;;10.84;100.00
34586;BME280;20816;50.950;11.108;2023-04-01T17:05:04;96981.94;;;10.68;100.00
34586;BME280;20816;50.950;11.108;2023-04-01T17:07:48;96991.03;;;10.61;100.00
34586;BME280;20816;50.950;11.108;2023-04-01T17:13:20;97000.63;;;10.62;100.00
34586;BME280;20816;50.950;11.108;2023-04-01T17:18:56;97009.34;;;10.62;100.00
34586;BME280;20816;50.950;11.108;2023-04-01T17:24:06;97005.22;;;10.57;100.00
34586;BME280;20816;50.950;11.108;2023-04-01T17:26:45;97003.69;;;10.53;100.00
34586;BME280;20816;50.950;11.108;2023-04-01T17:29:32;97014.47;;;10.47;100.00
34586;BME280;20816;50.950;11.108;2023-04-01T17:35:25;97021.69;;;10.42;100.00
34586;BME280;20816;50.950;11.108;2023-04-01T17:40:49;97023.69;;;10.36;100.00
34586;BME280;20816;50.950;11.108;2023-04-01T17:46:26;97032.50;;;10.35;100.00
34586;BME280;20816;50.950;11.108;2023-04-01T17:49:02;97034.34;;;10.33;100.00
34586;BME280;20816;50.950;11.108;2023-04-01T17:51:40;97035.41;;;10.29;100.00
34586;BME280;20816;50.950;11.108;2023-04-01T18:00:47;97045.78;;;10.12;100.00
34586;BME280;20816;50.950;11.108;2023-04-01T18:03:00;97047.50;;;10.13;100.00
34586;BME280;20816;50.950;11.108;2023-04-01T18:05:42;97056.16;;;10.15;100.00
34586;BME280;20816;50.950;11.108;2023-04-01T18:08:17;97063.41;;;10.10;100.00
34586;BME280;20816;50.950;11.108;2023-04-01T18:19:27;97076.00;;;10.02;100.00
34586;BME280;20816;50.950;11.108;2023-04-01T18:25:02;97084.13;;;9.96;100.00
34586;BME280;20816;50.950;11.108;2023-04-01T18:27:39;97096.50;;;9.94;100.00
34586;BME280;20816;50.950;11.108;2023-04-01T18:30:20;97092.00;;;9.96;100.00
34586;BME280;20816;50.950;11.108;2023-04-01T18:33:16;97100.06;;;9.91;100.00
34586;BME280;20816;50.950;11.108;2023-04-01T18:35:54;97102.78;;;9.90;100.00
34586;BME280;20816;50.950;11.108;2023-04-01T18:38:36;97110.63;;;9.90;100.00
34586;BME280;20816;50.950;11.108;2023-04-01T18:43:59;97109.97;;;9.84;100.00
34586;BME280;20816;50.950;11.108;2023-04-01T18:52:36;97128.88;;;9.93;100.00
34586;BME280;20816;50.950;11.108;2023-04-01T18:57:51;97124.03;;;9.83;100.00
34586;BME280;20816;50.950;11.108;2023-04-01T19:00:22;97136.34;;;9.81;100.00
34586;BME280;20816;50.950;11.108;2023-04-01T19:03:02;97145.16;;;9.80;100.00
34586;BME280;20816;50.950;11.108;2023-04-01T19:05:35;97145.94;;;9.82;100.00
34586;BME280;20816;50.950;11.108;2023-04-01T19:14:14;97162.84;;;9.75;100.00
34586;BME280;20816;50.950;11.108;2023-04-01T19:17:14;97159.19;;;9.79;100.00
34586;BME280;20816;50.950;11.108;2023-04-01T19:25:43;97170.84;;;9.72;100.00
34586;BME280;20816;50.950;11.108;2023-04-01T19:28:22;97173.00;;;9.63;100.00
34586;BME280;20816;50.950;11.108;2023-04-01T19:30:56;97175.56;;;9.64;100.00
34586;BME280;20816;50.950;11.108;2023-04-01T19:42:12;97187.03;;;9.62;100.00
34586;BME280;20816;50.950;11.108;2023-04-01T19:54:03;97195.31;;;9.51;100.00
34586;BME280;20816;50.950;11.108;2023-04-01T19:56:12;97211.19;;;9.48;100.00
34586;BME280;20816;50.950;11.108;2023-04-01T19:59:14;97207.50;;;9.52;100.00
34586;BME280;20816;50.950;11.108;2023-04-01T20:02:03;97203.72;;;9.59;100.00
34586;BME280;20816;50.950;11.108;2023-04-01T20:04:44;97219.75;;;9.53;100.00
34586;BME280;20816;50.950;11.108;2023-04-01T20:07:24;97225.84;;;9.53;100.00
34586;BME280;20816;50.950;11.108;2023-04-01T20:10:09;97236.03;;;9.61;100.00
34586;BME280;20816;50.950;11.108;2023-04-01T20:13:00;97231.66;;;9.60;100.00
34586;BME280;20816;50.950;11.108;2023-04-01T20:15:47;97239.75;;;9.55;100.00
34586;BME280;20816;50.950;11.108;2023-04-01T20:18:26;97246.06;;;9.50;100.00
34586;BME280;20816;50.950;11.108;2023-04-01T20:21:03;97237.91;;;9.58;100.00
34586;BME280;20816;50.950;11.108;2023-04-01T20:23:41;97253.16;;;9.48;100.00
34586;BME280;20816;50.950;11.108;2023-04-01T20:26:13;97255.91;;;9.45;100.00
34586;BME280;20816;50.950;11.108;2023-04-01T20:31:36;97258.25;;;9.51;100.00